Time;durP1;ratioP1;P1;durP2;ratioP2;P2;SDS_P1;SDS_P2;PMS_P1;PMS_P2;Temp;Humidity;BMP_temperature;BMP_pressure;BME280_temperature;BME280_humidity;BME280_pressure;Samples;Min_cycle;Max_cycle;Signal;HPM_P1;HPM_P2
2023/01/03 00:00:09;;;;;;;14.82;3.80;;;;;;;-1.20;100.00;101593.81;5017544;28;20025;-57
2023/01/03 00:02:35;;;;;;;7.63;3.28;;;;;;;-1.20;100.00;101593.81;5022059;28;20082;-57
2023/01/03 00:05:00;;;;;;;8.00;4.80;;;;;;;-1.18;100.00;101585.94;5014695;28;20489;-57
2023/01/03 00:07:35;;;;;;;5.40;2.90;;;;;;;-1.15;100.00;101584.00;5017700;28;20052;-57
2023/01/03 00:10:09;;;;;;;7.75;3.72;;;;;;;-1.08;100.00;101579.28;5022488;28;20087;-53
2023/01/03 00:12:35;;;;;;;6.65;3.03;;;;;;;-1.10;100.00;101576.75;5019348;28;20086;-57
2023/01/03 00:15:01;;;;;;;9.30;3.67;;;;;;;-1.15;100.00;101572.75;5022460;28;20529;-56
2023/01/03 00:17:27;;;;;;;6.43;3.50;;;;;;;-1.18;100.00;101568.56;5016619;28;20029;-54
2023/01/03 00:19:52;;;;;;;6.90;3.90;;;;;;;-1.22;100.00;101567.03;5015579;28;20526;-56
2023/01/03 00:22:18;;;;;;;7.68;4.25;;;;;;;-1.21;100.00;101565.31;5019021;28;20030;-56
2023/01/03 00:24:45;;;;;;;6.95;3.85;;;;;;;-1.17;100.00;101562.41;5020476;28;20036;-56
2023/01/03 00:27:11;;;;;;;6.10;4.30;;;;;;;-1.12;100.00;101564.75;5018295;28;20683;-57
2023/01/03 00:29:36;;;;;;;7.78;3.90;;;;;;;-1.03;100.00;101564.22;5018547;28;20056;-57
2023/01/03 00:32:03;;;;;;;5.80;3.17;;;;;;;-0.96;100.00;101562.09;5015989;28;20366;-58
2023/01/03 00:34:28;;;;;;;6.45;3.15;;;;;;;-0.90;100.00;101564.34;5013586;28;20030;-56
2023/01/03 00:36:54;;;;;;;8.30;3.35;;;;;;;-0.78;100.00;101565.38;5011880;28;20044;-56
2023/01/03 00:39:20;;;;;;;7.05;3.53;;;;;;;-0.71;100.00;101570.13;5012801;28;20109;-56
2023/01/03 00:41:46;;;;;;;9.07;4.72;;;;;;;-0.63;100.00;101572.28;5012855;28;20090;-57
2023/01/03 00:44:12;;;;;;;9.02;4.28;;;;;;;-0.52;100.00;101569.03;5015192;28;20460;-56
2023/01/03 00:46:37;;;;;;;7.70;3.65;;;;;;;-0.46;100.00;101560.84;5019079;28;20034;-57
2023/01/03 00:49:03;;;;;;;11.05;4.72;;;;;;;-0.37;100.00;101562.06;5011054;28;20029;-57
2023/01/03 00:51:32;;;;;;;8.80;4.50;;;;;;;-0.36;100.00;101554.16;5018500;28;20034;-55
2023/01/03 00:53:59;;;;;;;9.05;4.18;;;;;;;-0.35;100.00;101553.22;5016788;28;20038;-54
2023/01/03 00:56:26;;;;;;;6.53;3.70;;;;;;;-0.35;100.00;101548.00;5020108;28;20026;-57
2023/01/03 00:58:52;;;;;;;8.27;3.78;;;;;;;-0.32;100.00;101546.97;5015925;28;20178;-53
2023/01/03 01:01:28;;;;;;;10.02;4.47;;;;;;;-0.33;100.00;101548.75;5020347;28;20183;-56
2023/01/03 01:04:08;;;;;;;11.68;4.80;;;;;;;-0.33;100.00;101551.34;5016048;28;20060;-55
2023/01/03 01:06:37;;;;;;;9.27;4.63;;;;;;;-0.30;100.00;101550.31;5015127;28;20156;-51
2023/01/03 01:09:04;;;;;;;8.27;4.07;;;;;;;-0.23;100.00;101544.66;5017257;28;20029;-53
2023/01/03 01:11:30;;;;;;;7.22;3.47;;;;;;;-0.13;100.00;101541.44;5011969;28;20198;-56
2023/01/03 01:13:56;;;;;;;4.90;3.47;;;;;;;-0.10;100.00;101543.88;5020677;28;20423;-54
2023/01/03 01:16:28;;;;;;;7.22;3.35;;;;;;;-0.08;100.00;101542.84;5017834;28;20030;-54
2023/01/03 01:18:58;;;;;;;6.90;4.18;;;;;;;-0.07;100.00;101541.09;5021881;28;20087;-54
2023/01/03 01:21:29;;;;;;;7.47;4.28;;;;;;;-0.07;100.00;101538.47;5011719;28;20132;-54
2023/01/03 01:23:55;;;;;;;;;;;;;;;-0.01;100.00;101532.88;5015099;28;20069;-52
2023/01/03 01:26:22;;;;;;;4.82;3.60;;;;;;;0.01;100.00;101528.41;5017270;28;19921;-54
2023/01/03 01:28:49;;;;;;;4.05;2.80;;;;;;;0.04;100.00;101528.19;5025138;28;20029;-52
2023/01/03 01:31:18;;;;;;;6.50;3.92;;;;;;;0.06;100.00;101528.94;5020958;28;20514;-53
2023/01/03 01:33:43;;;;;;;6.47;3.30;;;;;;;0.08;100.00;101526.22;5025012;28;20022;-56
2023/01/03 01:36:15;;;;;;;8.40;3.85;;;;;;;0.09;100.00;101528.75;5021441;28;20022;-56
2023/01/03 01:38:41;;;;;;;6.93;3.08;;;;;;;0.12;100.00;101525.94;5014343;28;20179;-53
2023/01/03 01:41:12;;;;;;;6.90;3.08;;;;;;;0.15;100.00;101528.34;5019871;28;20176;-54
2023/01/03 01:46:39;;;;;;;;;;;;;;;0.33;100.00;101526.31;5018027;28;20044;-53
2023/01/03 01:49:09;;;;;;;5.72;3.28;;;;;;;0.34;100.00;101522.78;5015267;28;19921;-52
2023/01/03 01:51:35;;;;;;;6.23;3.07;;;;;;;0.33;100.00;101515.88;5016421;28;20030;-52
2023/01/03 01:54:03;;;;;;;4.00;2.45;;;;;;;0.36;100.00;101512.25;5019294;28;20048;-53
2023/01/03 01:56:42;;;;;;;6.10;4.22;;;;;;;0.42;100.00;101511.88;5023358;28;20072;-55
2023/01/03 01:59:10;;;;;;;4.85;3.45;;;;;;;0.44;100.00;101515.22;5020205;28;20034;-52
2023/01/03 02:01:35;;;;;;;3.88;2.53;;;;;;;0.42;100.00;101520.53;5021346;28;20028;-53
2023/01/03 02:04:07;;;;;;;4.45;3.60;;;;;;;0.43;100.00;101523.97;5023107;28;20029;-51
2023/01/03 02:06:32;;;;;;;;;;;;;;;0.51;100.00;101526.91;5025279;28;20028;-54
2023/01/03 02:08:58;;;;;;;5.90;3.60;;;;;;;0.41;100.00;101525.81;5026014;28;19917;-54
2023/01/03 02:11:33;;;;;;;4.57;3.08;;;;;;;0.43;100.00;101527.41;5028763;28;20033;-51
2023/01/03 02:14:13;;;;;;;5.57;3.40;;;;;;;0.48;100.00;101526.28;5030313;28;20147;-52
2023/01/03 02:16:59;;;;;;;6.40;3.13;;;;;;;0.51;100.00;101534.72;5029555;28;20025;-50
2023/01/03 02:19:42;;;;;;;3.95;2.90;;;;;;;0.58;100.00;101522.97;5038886;28;20123;-52
2023/01/03 02:22:25;;;;;;;5.68;3.13;;;;;;;0.62;100.00;101529.66;5031154;28;20053;-57
2023/01/03 02:25:03;;;;;;;5.93;3.42;;;;;;;0.64;100.00;101532.16;5025225;28;20030;-55
2023/01/03 02:27:31;;;;;;;6.88;3.72;;;;;;;0.58;100.00;101524.75;5035164;28;20100;-49
2023/01/03 02:30:02;;;;;;;7.05;2.45;;;;;;;0.44;100.00;101523.03;5023429;28;20030;-52
2023/01/03 02:33:02;;;;;;;7.75;3.63;;;;;;;0.30;100.00;101520.47;5033389;28;20037;-55
2023/01/03 02:35:33;;;;;;;5.83;3.60;;;;;;;0.21;100.00;101522.75;5029079;28;20049;-51
2023/01/03 02:38:23;;;;;;;4.55;2.88;;;;;;;0.18;100.00;101522.09;5038382;28;20032;-51
2023/01/03 02:40:58;;;;;;;4.70;2.47;;;;;;;0.18;100.00;101522.09;5030798;28;20091;-49
2023/01/03 02:43:33;;;;;;;8.73;2.90;;;;;;;0.25;100.00;101519.94;5031908;28;20075;-52
2023/01/03 02:46:12;;;;;;;5.40;2.90;;;;;;;0.32;100.00;101516.84;5040084;28;20390;-51
2023/01/03 02:48:57;;;;;;;7.47;3.30;;;;;;;0.42;100.00;101511.88;5032834;28;20079;-51
2023/01/03 02:51:32;;;;;;;5.47;2.97;;;;;;;0.46;100.00;101515.94;5024033;28;20061;-50
2023/01/03 02:53:59;;;;;;;3.60;2.60;;;;;;;0.51;100.00;101506.03;5028321;28;20036;-49
2023/01/03 02:56:31;;;;;;;3.67;2.40;;;;;;;0.49;100.00;101505.31;5030282;28;20080;-52
2023/01/03 02:59:01;;;;;;;5.07;2.45;;;;;;;0.53;100.00;101495.50;5019903;28;20112;-51
2023/01/03 03:01:28;;;;;;;4.05;2.58;;;;;;;0.59;100.00;101492.47;5016519;28;20025;-49
2023/01/03 03:03:56;;;;;;;4.40;2.13;;;;;;;0.62;100.00;101487.03;5033131;28;20431;-53
2023/01/03 03:06:27;;;;;;;9.02;2.88;;;;;;;0.64;100.00;101480.78;5026666;28;20036;-50
2023/01/03 03:08:52;;;;;;;;;;;;;;;0.76;100.00;101488.75;5034835;28;20072;-50
2023/01/03 03:14:19;;;;;;;5.78;1.90;;;;;;;0.75;100.00;101474.00;5033597;28;20094;-51
2023/01/03 03:16:48;;;;;;;6.18;3.13;;;;;;;0.60;100.00;101475.88;5033517;28;20032;-52
2023/01/03 03:25:31;;;;;;;6.78;3.22;;;;;;;0.15;100.00;101457.91;5021952;28;20457;-54
2023/01/03 03:30:49;;;;;;;4.75;3.25;;;;;;;-0.04;100.00;101465.28;5025517;28;20516;-49
2023/01/03 03:33:17;;;;;;;8.32;2.47;;;;;;;-0.08;100.00;101455.97;5031670;28;20032;-50
2023/01/03 03:36:06;;;;;;;4.53;2.65;;;;;;;-0.11;100.00;101450.94;5027285;28;20076;-52
2023/01/03 03:38:39;;;;;;;3.40;2.28;;;;;;;-0.15;100.00;101444.28;5022644;28;20039;-53
2023/01/03 03:47:39;;;;;;;9.95;3.60;;;;;;;-0.11;100.00;101443.13;5040259;28;20096;-53
2023/01/03 03:50:16;;;;;;;7.40;3.33;;;;;;;-0.07;100.00;101444.63;5020808;28;20053;-51
2023/01/03 03:52:46;;;;;;;1.77;1.55;;;;;;;-0.04;100.00;101449.63;5030849;28;20025;-52
2023/01/03 03:55:20;;;;;;;9.35;2.60;;;;;;;-0.06;100.00;101446.28;5028979;28;20068;-52
2023/01/03 03:57:51;;;;;;;3.75;2.45;;;;;;;-0.04;100.00;101441.81;5040075;28;20033;-53
2023/01/03 04:00:21;;;;;;;5.30;2.63;;;;;;;-0.07;100.00;101447.22;5030917;28;20044;-50
2023/01/03 04:02:48;;;;;;;7.50;3.72;;;;;;;-0.08;100.00;101433.34;5029029;28;20025;-51
2023/01/03 04:05:19;;;;;;;3.38;2.30;;;;;;;-0.07;100.00;101426.38;5035021;28;20029;-50
2023/01/03 04:07:46;;;;;;;8.52;3.17;;;;;;;-0.07;100.00;101427.19;5030748;28;20033;-49
2023/01/03 04:10:12;;;;;;;6.40;2.60;;;;;;;-0.16;100.00;101425.16;5031697;28;20029;-49
2023/01/03 04:12:38;;;;;;;8.35;2.92;;;;;;;-0.21;100.00;101432.44;5028011;28;20040;-52
2023/01/03 04:15:05;;;;;;;3.15;2.30;;;;;;;-0.17;100.00;101430.50;5020995;28;20030;-50
2023/01/03 04:17:31;;;;;;;5.50;2.92;;;;;;;-0.12;100.00;101436.25;5027793;28;20065;-51
2023/01/03 04:19:57;;;;;;;4.57;2.30;;;;;;;-0.01;100.00;101437.22;5021387;28;20062;-51
2023/01/03 04:22:22;;;;;;;2.85;2.13;;;;;;;0.06;100.00;101439.44;5034644;28;20459;-51
2023/01/03 04:24:47;;;;;;;3.75;2.35;;;;;;;0.07;100.00;101435.88;5019012;28;20034;-53
2023/01/03 04:27:13;;;;;;;6.28;2.15;;;;;;;0.01;100.00;101433.69;5038194;28;20029;-51
2023/01/03 04:29:39;;;;;;;3.75;1.88;;;;;;;0.03;100.00;101435.25;5027848;28;20036;-52
2023/01/03 04:32:04;;;;;;;5.45;3.47;;;;;;;0.06;100.00;101436.84;5025322;28;20029;-48
2023/01/03 04:34:30;;;;;;;5.45;2.95;;;;;;;0.16;100.00;101443.97;5025989;28;20536;-54
2023/01/03 04:36:55;;;;;;;4.63;2.72;;;;;;;0.16;100.00;101443.97;5026561;28;20022;-49
2023/01/03 04:39:20;;;;;;;4.78;2.00;;;;;;;0.20;100.00;101442.81;5028851;28;20505;-50
2023/01/03 04:41:46;;;;;;;2.33;1.67;;;;;;;0.26;100.00;101444.19;5037738;28;20436;-51
2023/01/03 04:44:11;;;;;;;7.78;3.08;;;;;;;0.34;100.00;101435.88;5034491;28;20374;-50
2023/01/03 04:46:38;;;;;;;7.00;3.00;;;;;;;0.39;100.00;101433.78;5027638;28;20029;-49
2023/01/03 04:49:06;;;;;;;5.47;2.92;;;;;;;0.40;100.00;101427.63;5030478;28;20026;-53
2023/01/03 04:51:32;;;;;;;5.95;3.03;;;;;;;0.40;100.00;101418.03;5022907;28;20030;-48
2023/01/03 04:53:57;;;;;;;5.28;3.30;;;;;;;0.42;100.00;101415.31;5023559;28;20032;-51
2023/01/03 04:56:29;;;;;;;4.82;2.72;;;;;;;0.46;100.00;101414.16;5035492;28;20029;-51
2023/01/03 04:58:55;;;;;;;3.53;2.25;;;;;;;0.48;100.00;101422.72;5032470;28;20067;-52
2023/01/03 05:01:21;;;;;;;6.97;2.80;;;;;;;0.46;100.00;101416.78;5030116;28;20026;-50
2023/01/03 05:03:47;;;;;;;6.93;3.08;;;;;;;0.51;100.00;101421.69;5035101;28;20029;-55
2023/01/03 05:06:13;;;;;;;3.85;2.38;;;;;;;0.55;100.00;101429.22;5025480;28;20083;-51
2023/01/03 05:08:39;;;;;;;4.55;2.95;;;;;;;0.62;100.00;101425.25;5033698;28;20433;-51
2023/01/03 05:11:05;;;;;;;3.60;2.25;;;;;;;0.66;100.00;101436.31;5033049;28;20025;-53
2023/01/03 05:13:32;;;;;;;5.63;2.92;;;;;;;0.68;100.00;101437.06;5031827;28;20045;-50
2023/01/03 05:16:04;;;;;;;3.88;1.90;;;;;;;0.77;100.00;101430.38;5032280;28;20029;-53
2023/01/03 05:18:30;;;;;;;7.07;2.88;;;;;;;0.78;100.00;101425.06;5025324;28;20037;-48
2023/01/03 05:26:23;;;;;;;6.22;2.25;;;;;;;0.84;100.00;101418.56;5033416;28;20048;-51
2023/01/03 05:28:52;;;;;;;9.30;3.42;;;;;;;0.85;100.00;101425.44;5031694;28;20021;-51
2023/01/03 05:31:17;;;;;;;6.32;3.20;;;;;;;0.85;100.00;101420.22;5031082;28;20116;-54
2023/01/03 05:33:43;;;;;;;5.07;2.20;;;;;;;0.88;100.00;101417.44;5026283;28;20116;-50
2023/01/03 05:36:09;;;;;;;5.20;3.28;;;;;;;0.90;100.00;101423.34;5036621;28;20045;-50
2023/01/03 05:38:35;;;;;;;4.47;2.75;;;;;;;0.89;100.00;101419.09;5031853;28;20045;-49
2023/01/03 05:41:01;;;;;;;4.35;2.75;;;;;;;0.91;100.00;101406.78;5030932;28;20124;-50
2023/01/03 05:43:26;;;;;;;3.25;2.05;;;;;;;0.96;100.00;101414.28;5031313;28;20400;-50
2023/01/03 05:45:52;;;;;;;5.07;2.22;;;;;;;0.99;100.00;101408.84;5021818;28;20076;-49
2023/01/03 05:48:19;;;;;;;3.95;2.63;;;;;;;1.06;100.00;101415.34;5031470;28;20075;-52
2023/01/03 05:50:46;;;;;;;3.42;1.92;;;;;;;1.11;100.00;101413.22;5033915;28;20076;-52
2023/01/03 05:53:11;;;;;;;2.90;2.47;;;;;;;1.12;100.00;101414.91;5033727;28;20036;-50
2023/01/03 05:55:37;;;;;;;3.53;2.85;;;;;;;1.15;100.00;101414.66;5026794;28;20457;-51
2023/01/03 05:58:05;;;;;;;4.57;2.67;;;;;;;1.20;100.00;101412.56;5030053;28;20093;-50
2023/01/03 06:00:30;;;;;;;5.25;2.63;;;;;;;1.23;100.00;101408.91;5028047;28;20045;-48
2023/01/03 06:02:56;;;;;;;5.00;2.72;;;;;;;1.29;100.00;101405.84;5018545;28;20032;-49
2023/01/03 06:05:22;;;;;;;3.15;2.75;;;;;;;1.33;100.00;101414.34;5028621;28;20483;-50
2023/01/03 06:07:47;;;;;;;5.47;3.17;;;;;;;1.35;100.00;101420.28;5035423;28;20026;-54
2023/01/03 06:10:12;;;;;;;2.65;1.95;;;;;;;1.40;100.00;101419.03;5036451;28;20107;-53
2023/01/03 06:12:38;;;;;;;5.45;3.53;;;;;;;1.43;100.00;101413.56;5041633;28;20410;-50
2023/01/03 06:15:04;;;;;;;4.15;2.28;;;;;;;1.42;100.00;101406.69;5030526;28;20096;-50
2023/01/03 06:20:14;;;;;;;4.97;2.50;;;;;;;1.50;100.00;101403.53;5029419;28;20625;-52
2023/01/03 06:22:39;;;;;;;5.13;2.45;;;;;;;1.53;100.00;101403.31;5033702;28;20116;-52
2023/01/03 06:25:04;;;;;;;4.38;2.90;;;;;;;1.53;100.00;101398.91;5028156;28;20108;-53
2023/01/03 06:27:30;;;;;;;5.82;3.63;;;;;;;1.57;100.00;101399.50;5037550;28;20132;-52
2023/01/03 06:29:55;;;;;;;5.35;3.22;;;;;;;1.59;100.00;101395.00;5031069;28;20037;-51
2023/01/03 06:32:21;;;;;;;6.45;2.30;;;;;;;1.64;100.00;101403.34;5032792;28;20017;-52
2023/01/03 06:34:46;;;;;;;2.45;1.75;;;;;;;1.70;100.00;101389.84;5022147;28;20030;-49
2023/01/03 06:37:11;;;;;;;5.15;2.42;;;;;;;1.74;100.00;101382.63;5030872;28;20025;-50
2023/01/03 06:39:36;;;;;;;5.60;2.53;;;;;;;1.77;100.00;101392.84;5025627;28;20049;-53
2023/01/03 06:53:10;;;;;;;10.35;3.45;;;;;;;1.88;100.00;101392.06;5028931;28;20556;-53
2023/01/03 06:53:11;;;;;;;5.15;2.20;;;;;;;2.02;100.00;101380.59;5032738;28;20044;-49
2023/01/03 06:55:36;;;;;;;5.53;2.38;;;;;;;2.47;100.00;101385.94;5021668;28;20099;-50
2023/01/03 06:58:01;;;;;;;5.32;1.92;;;;;;;2.94;100.00;101386.69;5031812;28;20105;-52
2023/01/03 07:00:27;;;;;;;5.85;2.97;;;;;;;3.32;100.00;101398.59;5034089;28;20042;-48
2023/01/03 07:02:52;;;;;;;4.28;2.35;;;;;;;3.54;100.00;101393.31;5028492;28;20033;-49
2023/01/03 07:05:18;;;;;;;7.88;3.50;;;;;;;3.67;100.00;101395.78;5020202;28;20037;-50
2023/01/03 07:07:43;;;;;;;4.95;1.73;;;;;;;3.83;100.00;101390.13;5032322;28;20025;-50
2023/01/03 07:10:09;;;;;;;9.25;4.15;;;;;;;3.96;100.00;101398.66;5020978;28;20033;-47
2023/01/03 07:15:18;;;;;;;3.78;2.45;;;;;;;4.09;100.00;101393.22;5019808;28;20080;-49
2023/01/03 07:17:43;;;;;;;6.10;2.88;;;;;;;4.08;100.00;101389.78;5034934;28;20052;-50
2023/01/03 07:20:09;;;;;;;4.22;2.38;;;;;;;4.11;100.00;101389.53;5021821;28;20025;-49
2023/01/03 07:22:34;;;;;;;6.25;3.53;;;;;;;4.19;100.00;101393.31;5023210;28;20029;-50
2023/01/03 07:24:59;;;;;;;11.68;3.20;;;;;;;4.10;100.00;101384.38;5019286;28;20293;-50
2023/01/03 07:27:25;;;;;;;3.50;2.90;;;;;;;4.09;100.00;101380.94;5039060;28;20083;-50
2023/01/03 07:29:50;;;;;;;9.40;2.53;;;;;;;4.11;100.00;101376.41;5023155;28;20477;-51
2023/01/03 07:32:15;;;;;;;12.05;3.97;;;;;;;4.14;100.00;101375.31;5019221;28;20156;-52
2023/01/03 07:34:40;;;;;;;7.47;2.50;;;;;;;4.24;100.00;101380.63;5020903;28;20117;-49
2023/01/03 07:37:06;;;;;;;6.97;1.90;;;;;;;4.31;100.00;101376.53;5039421;28;20437;-48
2023/01/03 07:39:31;;;;;;;2.65;1.95;;;;;;;4.35;100.00;101372.69;5034935;28;20029;-48
2023/01/03 07:44:40;;;;;;;7.20;2.05;;;;;;;4.58;100.00;101378.63;5017908;28;20087;-49
2023/01/03 07:47:06;;;;;;;3.20;1.98;;;;;;;4.66;100.00;101380.63;5018946;28;20555;-51
2023/01/03 07:49:31;;;;;;;4.40;1.95;;;;;;;4.71;100.00;101381.88;5006311;28;20075;-51
2023/01/03 07:51:56;;;;;;;7.38;1.95;;;;;;;4.81;100.00;101379.31;5000251;28;20556;-50
2023/01/03 07:54:22;;;;;;;2.95;1.63;;;;;;;4.83;100.00;101377.38;5001677;28;20045;-50
2023/01/03 07:56:47;;;;;;;6.22;3.03;;;;;;;4.89;100.00;101379.47;5006992;28;20029;-53
2023/01/03 07:59:12;;;;;;;3.47;1.48;;;;;;;4.96;100.00;101388.50;5020263;28;20091;-49
2023/01/03 08:01:38;;;;;;;9.55;3.15;;;;;;;5.08;100.00;101388.41;5022818;28;20029;-50
2023/01/03 08:04:03;;;;;;;2.95;0.98;;;;;;;5.12;100.00;101388.00;5023232;28;20029;-51
2023/01/03 08:06:28;;;;;;;3.72;1.08;;;;;;;5.17;100.00;101382.34;5016619;28;20029;-52
2023/01/03 08:14:21;;;;;;;2.53;1.38;;;;;;;5.38;100.00;101387.53;5024574;28;20538;-51
2023/01/03 08:16:47;;;;;;;3.28;1.30;;;;;;;5.37;100.00;101378.81;5008080;28;20060;-53
2023/01/03 08:19:12;;;;;;;2.88;1.48;;;;;;;5.36;100.00;101389.44;5010959;28;20499;-53
2023/01/03 08:21:37;;;;;;;6.22;1.38;;;;;;;5.49;100.00;101376.88;5017435;28;20398;-55
2023/01/03 08:24:03;;;;;;;3.88;1.80;;;;;;;5.58;100.00;101377.88;5013385;28;20029;-51
2023/01/03 08:26:28;;;;;;;4.63;2.38;;;;;;;5.60;100.00;101375.91;5004628;28;20034;-53
2023/01/03 08:28:53;;;;;;;6.13;0.88;;;;;;;5.66;100.00;101383.28;5006342;28;20018;-51
2023/01/03 08:31:25;;;;;;;1.27;0.93;;;;;;;5.75;100.00;101385.06;5009754;28;20029;-48
2023/01/03 08:33:54;;;;;;;10.60;2.33;;;;;;;5.78;100.00;101381.34;5009520;28;20065;-48
2023/01/03 08:36:21;;;;;;;3.17;1.52;;;;;;;5.93;100.00;101390.50;5020875;28;20116;-51
2023/01/03 08:39:08;;;;;;;6.82;0.80;;;;;;;5.99;100.00;101379.47;5014612;28;20395;-51
2023/01/03 08:41:38;;;;;;;13.02;2.88;;;;;;;6.04;100.00;101366.72;5014887;28;20041;-48
2023/01/03 08:44:07;;;;;;;7.07;0.77;;;;;;;6.09;100.00;101364.50;5021006;28;20124;-51
2023/01/03 08:46:33;;;;;;;4.72;0.95;;;;;;;6.13;100.00;101361.56;5022294;28;20467;-51
2023/01/03 08:48:58;;;;;;;3.70;1.85;;;;;;;6.16;100.00;101361.28;5020201;28;20044;-52
2023/01/03 08:51:25;;;;;;;5.38;0.95;;;;;;;6.28;100.00;101355.72;5021864;28;20045;-52
2023/01/03 08:53:51;;;;;;;2.17;0.43;;;;;;;6.40;100.00;101359.03;5026188;28;20431;-52
2023/01/03 08:56:18;;;;;;;7.78;0.82;;;;;;;6.44;100.00;101362.22;5024327;28;20068;-50
2023/01/03 08:58:44;;;;;;;4.72;0.38;;;;;;;6.49;100.00;101363.44;5019026;28;20022;-52
2023/01/03 09:01:10;;;;;;;4.82;0.55;;;;;;;6.60;100.00;101361.59;5020629;28;20060;-49
2023/01/03 09:03:36;;;;;;;9.55;1.95;;;;;;;6.71;100.00;101354.38;5022164;28;20037;-53
2023/01/03 09:06:02;;;;;;;11.75;0.93;;;;;;;6.80;100.00;101357.09;5024755;28;20026;-48
2023/01/03 09:08:32;;;;;;;12.00;0.47;;;;;;;6.76;100.00;101354.75;5025267;28;20034;-50
2023/01/03 09:10:58;;;;;;;2.28;0.50;;;;;;;6.78;100.00;101350.16;5030760;28;20030;-53
2023/01/03 09:13:23;;;;;;;2.90;0.77;;;;;;;6.86;100.00;101351.25;5028481;28;20041;-53
2023/01/03 09:15:49;;;;;;;9.70;1.67;;;;;;;6.88;100.00;101350.13;5021842;28;20228;-49
2023/01/03 09:18:14;;;;;;;2.53;0.85;;;;;;;6.87;100.00;101340.56;5019292;28;20348;-50
2023/01/03 09:20:40;;;;;;;4.55;0.60;;;;;;;6.93;100.00;101337.34;5026519;28;20791;-49
2023/01/03 09:23:05;;;;;;;7.55;0.80;;;;;;;6.97;100.00;101336.06;5038484;28;20150;-51
2023/01/03 09:25:31;;;;;;;10.90;1.95;;;;;;;7.00;100.00;101337.59;5024516;28;20029;-51
2023/01/03 09:27:56;;;;;;;6.18;1.45;;;;;;;7.01;100.00;101326.06;5034135;28;20022;-51
2023/01/03 09:30:21;;;;;;;4.80;1.70;;;;;;;7.06;100.00;101325.63;5029449;28;20543;-53
2023/01/03 09:32:49;;;;;;;2.92;0.35;;;;;;;7.09;100.00;101331.41;5039970;28;20022;-49
2023/01/03 09:35:16;;;;;;;1.90;0.57;;;;;;;7.11;100.00;101324.19;5030897;28;20029;-49
2023/01/03 09:37:41;;;;;;;2.72;0.30;;;;;;;7.17;100.00;101335.94;5041263;28;20021;-51
2023/01/03 09:40:07;;;;;;;5.85;0.40;;;;;;;7.27;100.00;101334.09;5033909;28;20060;-50
2023/01/03 09:45:33;;;;;;;5.03;0.50;;;;;;;7.51;100.00;101336.16;5026336;28;20510;-49
2023/01/03 09:48:02;;;;;;;3.70;0.80;;;;;;;7.60;100.00;101327.34;5042812;28;20044;-54
2023/01/03 09:50:32;;;;;;;1.05;0.28;;;;;;;7.60;100.00;101324.69;5040753;28;20049;-53
2023/01/03 10:04:17;;;;;;;4.03;0.40;;;;;;;8.07;100.00;101313.03;5034063;28;20094;-57
2023/01/03 10:07:00;;;;;;;6.53;0.80;;;;;;;8.00;100.00;101312.84;5023417;28;20041;-54
2023/01/03 10:09:43;;;;;;;5.18;2.00;;;;;;;8.09;100.00;101306.59;5025867;28;20035;-51
2023/01/03 10:12:27;;;;;;;2.92;0.43;;;;;;;8.09;100.00;101300.50;5017377;28;20356;-48
2023/01/03 10:15:05;;;;;;;5.50;0.75;;;;;;;8.21;100.00;101301.06;5022829;28;20430;-52
2023/01/03 10:18:08;;;;;;;4.15;0.40;;;;;;;8.25;100.00;101302.41;5019307;28;20536;-53
2023/01/03 10:21:04;;;;;;;0.47;0.25;;;;;;;8.23;100.00;101304.38;5025177;28;20033;-49
2023/01/03 10:23:30;;;;;;;1.50;0.52;;;;;;;8.26;100.00;101304.06;5018488;28;20044;-49
2023/01/03 10:25:56;;;;;;;2.22;0.20;;;;;;;8.23;100.00;101297.28;5027781;28;20450;-53
2023/01/03 10:28:30;;;;;;;2.65;0.28;;;;;;;8.27;100.00;101297.81;5022928;28;20064;-54
2023/01/03 10:31:25;;;;;;;2.42;0.93;;;;;;;8.34;100.00;101290.06;5019789;28;20026;-51
2023/01/03 10:33:50;;;;;;;5.03;0.82;;;;;;;8.41;100.00;101297.25;5027017;28;20049;-50
2023/01/03 10:36:18;;;;;;;7.13;2.47;;;;;;;8.48;100.00;101286.91;5018598;28;20026;-54
2023/01/03 10:38:44;;;;;;;4.75;0.30;;;;;;;8.49;100.00;101284.09;5033895;28;20039;-50
2023/01/03 10:41:30;;;;;;;2.30;0.45;;;;;;;8.51;100.00;101287.41;5029104;28;20033;-49
2023/01/03 10:43:58;;;;;;;0.77;0.45;;;;;;;8.58;100.00;101279.69;5030873;28;20036;-52
2023/01/03 10:46:26;;;;;;;5.55;0.98;;;;;;;8.63;100.00;101271.28;5024480;28;20077;-49
2023/01/03 10:48:54;;;;;;;3.95;1.60;;;;;;;8.64;100.00;101270.28;5026626;28;20080;-55
2023/01/03 10:51:29;;;;;;;1.75;1.23;;;;;;;8.65;100.00;101256.91;5034612;28;20499;-49
2023/01/03 10:53:58;;;;;;;3.30;0.50;;;;;;;8.65;100.00;101264.03;5028644;28;20030;-47
2023/01/03 10:56:25;;;;;;;6.28;1.40;;;;;;;8.62;100.00;101257.25;5025797;28;20039;-53
2023/01/03 10:59:09;;;;;;;3.67;0.43;;;;;;;8.66;100.00;101257.72;5029008;28;20057;-51
2023/01/03 11:01:35;;;;;;;2.83;0.35;;;;;;;8.62;100.00;101240.53;5031573;28;20110;-53
2023/01/03 11:04:17;;;;;;;1.10;0.10;;;;;;;8.60;100.00;101243.34;5030266;28;20471;-56
2023/01/03 11:07:08;;;;;;;6.70;1.75;;;;;;;8.62;100.00;101245.81;5024125;28;20414;-49
2023/01/03 11:09:42;;;;;;;5.90;0.10;;;;;;;8.62;100.00;101240.53;5028688;28;20501;-50
2023/01/03 11:12:13;;;;;;;2.05;0.90;;;;;;;8.65;100.00;101233.13;5028097;28;20049;-51
2023/01/03 11:14:47;;;;;;;;;;;;;;;8.74;100.00;101226.84;5025579;28;20042;-53
2023/01/03 11:17:16;;;;;;;2.08;1.08;;;;;;;8.72;100.00;101230.66;5027279;28;19963;-51
2023/01/03 11:19:42;;;;;;;5.20;1.80;;;;;;;8.76;100.00;101231.16;5031941;28;20521;-49
2023/01/03 11:22:31;;;;;;;6.40;1.20;;;;;;;8.77;100.00;101215.13;5031823;28;20107;-52
2023/01/03 11:25:17;;;;;;;1.40;0.43;;;;;;;8.74;100.00;101208.34;5019736;28;20069;-52
2023/01/03 11:28:20;;;;;;;5.32;0.95;;;;;;;8.85;100.00;101207.22;5023383;28;20026;-51
2023/01/03 11:31:10;;;;;;;0.82;0.00;;;;;;;8.91;100.00;101193.34;5022723;28;20052;-49
2023/01/03 11:33:55;;;;;;;1.55;0.77;;;;;;;8.82;100.00;101196.97;5021364;28;20112;-52
2023/01/03 11:36:21;;;;;;;2.72;0.45;;;;;;;8.76;100.00;101189.69;5021946;28;20114;-53
2023/01/03 11:38:59;;;;;;;0.63;0.30;;;;;;;8.78;100.00;101182.44;5018988;28;20021;-52
2023/01/03 11:42:02;;;;;;;1.23;0.30;;;;;;;8.85;100.00;101180.75;5019631;28;20423;-49
2023/01/03 11:45:00;;;;;;;4.70;0.85;;;;;;;8.86;100.00;101176.31;5021625;28;20042;-50
2023/01/03 11:47:50;;;;;;;0.68;0.30;;;;;;;8.88;100.00;101154.03;5022896;28;20079;-52
2023/01/03 11:50:57;;;;;;;3.00;0.50;;;;;;;8.93;100.00;101150.84;5019458;28;20308;-52
2023/01/03 11:53:31;;;;;;;2.08;0.88;;;;;;;8.99;100.00;101152.88;5019459;28;20505;-52
2023/01/03 11:56:23;;;;;;;4.68;0.20;;;;;;;9.02;100.00;101133.19;5035692;28;20031;-48
2023/01/03 11:59:13;;;;;;;4.45;0.50;;;;;;;9.06;100.00;101132.72;5027951;28;20025;-52
2023/01/03 12:02:23;;;;;;;5.28;0.85;;;;;;;9.15;100.00;101126.41;5027439;28;20081;-49
2023/01/03 12:05:14;;;;;;;1.33;0.25;;;;;;;9.14;100.00;101131.88;5023886;28;20025;-51
2023/01/03 12:07:51;;;;;;;1.75;0.20;;;;;;;9.15;100.00;101126.41;5015730;28;20033;-54
2023/01/03 12:10:31;;;;;;;3.35;0.88;;;;;;;9.20;100.00;101107.41;5026538;28;20033;-51
2023/01/03 12:13:05;;;;;;;3.47;1.10;;;;;;;9.19;100.00;101113.69;5019409;28;20040;-54
2023/01/03 12:15:42;;;;;;;7.13;0.93;;;;;;;9.17;100.00;101115.66;5022646;28;20041;-61
2023/01/03 12:18:40;;;;;;;1.58;0.73;;;;;;;9.22;100.00;101100.13;5017951;28;20288;-54
2023/01/03 12:21:28;;;;;;;2.00;0.93;;;;;;;9.27;100.00;101107.56;5030251;28;20290;-52
2023/01/03 12:24:00;;;;;;;3.45;0.75;;;;;;;9.21;100.00;101103.75;5026302;28;20037;-52
2023/01/03 12:26:25;;;;;;;;;;;;;;;9.22;100.00;101097.47;5025104;28;20033;-48
2023/01/03 12:28:58;;;;;;;3.53;1.20;;;;;;;9.21;100.00;101103.75;5028979;28;19921;-51
2023/01/03 12:31:30;;;;;;;5.93;0.50;;;;;;;9.21;100.00;101092.34;5024863;28;20032;-51
2023/01/03 12:34:22;;;;;;;3.38;0.55;;;;;;;9.22;100.00;101088.72;5025862;28;20044;-52
2023/01/03 12:37:11;;;;;;;9.63;1.85;;;;;;;9.22;100.00;101089.53;5019439;28;20037;-63
2023/01/03 12:39:37;;;;;;;3.22;1.23;;;;;;;9.26;100.00;101085.53;5017496;28;20030;-56
2023/01/03 12:42:13;;;;;;;5.32;1.70;;;;;;;9.35;100.00;101073.97;5022246;28;20032;-52